Time;durP1;ratioP1;P1;durP2;ratioP2;P2;SDS_P1;SDS_P2;PMS_P1;PMS_P2;Temp;Humidity;BMP_temperature;BMP_pressure;BME280_temperature;BME280_humidity;BME280_pressure;Samples;Min_cycle;Max_cycle;Signal;HPM_P1;HPM_P2
2022/05/13 00:01:40;;;;;;;3.50;0.65;;;16.70;79.30;;;;;;5067701;28;20223;-35
2022/05/13 00:04:10;;;;;;;4.00;0.95;;;16.70;79.30;;;;;;5063293;28;20227;-35
2022/05/13 00:06:38;;;;;;;4.03;0.88;;;16.60;79.30;;;;;;5065287;28;20200;-35
2022/05/13 00:09:05;;;;;;;5.20;1.00;;;16.60;79.40;;;;;;5063653;28;20235;-35
2022/05/13 00:11:32;;;;;;;3.03;0.93;;;16.50;79.40;;;;;;5062288;28;20595;-35
2022/05/13 00:14:00;;;;;;;3.35;0.90;;;16.50;79.40;;;;;;5051114;28;20204;-33
2022/05/13 00:16:27;;;;;;;3.17;0.90;;;16.50;79.40;;;;;;5055767;28;20242;-33
2022/05/13 00:18:55;;;;;;;2.75;0.88;;;16.40;79.30;;;;;;5062013;28;20211;-34
2022/05/13 00:21:27;;;;;;;2.85;0.95;;;16.40;79.50;;;;;;5062363;28;20207;-33
2022/05/13 00:23:56;;;;;;;2.47;0.80;;;16.40;79.40;;;;;;5049349;28;20203;-34
2022/05/13 00:26:23;;;;;;;2.50;0.75;;;16.30;79.70;;;;;;5052782;28;20675;-33
2022/05/13 00:28:51;;;;;;;3.60;1.02;;;16.20;79.60;;;;;;5054805;28;20207;-33
2022/05/13 00:31:18;;;;;;;3.10;1.20;;;16.20;79.60;;;;;;5055627;28;20187;-33
2022/05/13 00:33:51;;;;;;;5.72;1.17;;;16.20;79.60;;;;;;5057732;28;20210;-34
2022/05/13 00:36:20;;;;;;;4.05;1.00;;;16.10;79.80;;;;;;5067623;28;20207;-32
2022/05/13 00:38:50;;;;;;;3.42;1.20;;;16.10;79.50;;;;;;5063532;28;20204;-33
2022/05/13 00:41:17;;;;;;;3.65;0.90;;;16.10;80.00;;;;;;5065597;28;20612;-33
2022/05/13 00:43:54;;;;;;;3.58;0.93;;;16.00;79.60;;;;;;5059702;28;20523;-33
2022/05/13 00:46:23;;;;;;;2.28;0.80;;;16.00;79.80;;;;;;5054828;28;20247;-32
2022/05/13 00:48:53;;;;;;;2.35;1.08;;;15.90;79.70;;;;;;5060861;28;20788;-33
2022/05/13 00:51:29;;;;;;;3.17;1.00;;;15.90;79.80;;;;;;5051003;28;20215;-33
2022/05/13 00:54:01;;;;;;;3.20;1.15;;;15.90;80.10;;;;;;5051342;28;20250;-34
2022/05/13 00:56:34;;;;;;;4.07;1.08;;;15.80;80.00;;;;;;5060074;28;20240;-33
2022/05/13 00:59:05;;;;;;;4.70;1.15;;;15.80;80.60;;;;;;5049715;28;20196;-33
2022/05/13 01:01:33;;;;;;;3.88;1.08;;;15.80;80.60;;;;;;5052379;28;20210;-33
2022/05/13 01:04:04;;;;;;;2.13;0.75;;;15.70;79.90;;;;;;5065370;28;20200;-34
2022/05/13 01:06:38;;;;;;;7.70;1.42;;;15.70;80.00;;;;;;5060686;28;20365;-33
2022/05/13 01:09:05;;;;;;;3.35;0.98;;;15.70;80.10;;;;;;5052003;28;20196;-32
2022/05/13 01:11:35;;;;;;;3.33;0.85;;;15.60;80.00;;;;;;5057608;28;20310;-33
2022/05/13 01:14:05;;;;;;;3.08;1.05;;;15.60;80.00;;;;;;5069332;28;20290;-35
2022/05/13 01:18:05;;;;;;;4.82;1.23;;;15.60;80.10;;;;;;5057813;28;20207;-35
2022/05/13 01:19:20;;;;;;;4.82;0.90;;;15.50;80.00;;;;;;5051045;28;20200;-35
2022/05/13 01:21:50;;;;;;;4.03;1.15;;;15.50;80.20;;;;;;5051752;28;21009;-35
2022/05/13 01:24:20;;;;;;;5.28;1.08;;;15.50;80.50;;;;;;5057771;28;20246;-35
2022/05/13 01:26:47;;;;;;;3.63;1.02;;;15.50;80.50;;;;;;5055370;28;20200;-35
2022/05/13 01:29:15;;;;;;;4.43;1.10;;;15.40;80.80;;;;;;5058697;28;20231;-35
2022/05/13 01:31:45;;;;;;;3.58;1.20;;;15.40;80.60;;;;;;5064204;28;20547;-35
2022/05/13 01:34:14;;;;;;;4.82;1.30;;;15.40;80.60;;;;;;5062070;28;20195;-34
2022/05/13 01:36:42;;;;;;;4.63;1.25;;;15.30;80.60;;;;;;5057176;28;20214;-35
2022/05/13 01:39:11;;;;;;;5.22;1.02;;;15.30;80.70;;;;;;5052567;28;20212;-35
2022/05/13 01:41:39;;;;;;;4.68;1.13;;;15.30;80.70;;;;;;5057429;28;20206;-35
2022/05/13 01:44:09;;;;;;;6.15;1.60;;;15.30;80.60;;;;;;5069564;28;20222;-35
2022/05/13 01:46:36;;;;;;;4.47;1.25;;;15.30;80.90;;;;;;5058200;28;20227;-36
2022/05/13 01:49:06;;;;;;;3.67;1.05;;;15.30;80.80;;;;;;5058086;28;20214;-35
2022/05/13 01:51:33;;;;;;;6.20;1.65;;;15.20;80.80;;;;;;5052984;28;20211;-35
2022/05/13 01:54:03;;;;;;;5.43;1.33;;;15.20;81.70;;;;;;5051707;28;20311;-35
2022/05/13 01:56:30;;;;;;;5.05;1.30;;;15.20;81.10;;;;;;5054996;28;20208;-33
2022/05/13 01:58:57;;;;;;;9.25;1.30;;;15.20;81.00;;;;;;5052499;28;20217;-33
2022/05/13 02:01:29;;;;;;;4.20;1.20;;;15.10;81.30;;;;;;5060767;28;20545;-33
2022/05/13 02:03:57;;;;;;;6.83;1.20;;;15.10;81.10;;;;;;5068662;28;20220;-33
2022/05/13 02:06:28;;;;;;;4.75;1.27;;;15.10;81.20;;;;;;5057046;28;20216;-33
2022/05/13 02:08:57;;;;;;;5.53;1.55;;;15.10;81.60;;;;;;5048911;28;20590;-33
2022/05/13 02:11:30;;;;;;;4.50;1.10;;;15.00;81.30;;;;;;5055133;28;20609;-32
2022/05/13 02:13:59;;;;;;;4.82;1.40;;;15.00;81.50;;;;;;5055734;28;20223;-34
2022/05/13 02:16:28;;;;;;;4.10;1.20;;;15.00;81.40;;;;;;5061356;28;20713;-35
2022/05/13 02:18:58;;;;;;;5.78;1.20;;;15.00;81.80;;;;;;5059941;28;20207;-34
2022/05/13 02:21:26;;;;;;;3.28;1.00;;;15.00;81.50;;;;;;5064813;28;20222;-33
2022/05/13 02:23:56;;;;;;;6.43;1.60;;;15.00;81.80;;;;;;5052951;28;20208;-33
2022/05/13 02:26:25;;;;;;;7.22;1.50;;;14.90;81.80;;;;;;5063239;28;20219;-33
2022/05/13 02:29:01;;;;;;;3.60;1.15;;;15.00;82.30;;;;;;5053510;28;20197;-33
2022/05/13 02:31:29;;;;;;;6.13;1.53;;;14.90;82.00;;;;;;5060110;28;20202;-32
2022/05/13 02:33:58;;;;;;;9.93;1.80;;;14.90;82.00;;;;;;5061882;28;20216;-33
2022/05/13 02:36:28;;;;;;;5.93;1.60;;;14.90;82.10;;;;;;5064081;28;20269;-34
2022/05/13 02:38:55;;;;;;;3.58;1.38;;;14.90;82.00;;;;;;5065074;28;20678;-34
2022/05/13 02:41:22;;;;;;;4.75;1.45;;;14.90;82.40;;;;;;5048109;28;20779;-33
2022/05/13 02:43:53;;;;;;;5.33;1.23;;;14.90;82.20;;;;;;5046700;28;20212;-34
2022/05/13 02:46:27;;;;;;;5.97;1.23;;;14.90;82.70;;;;;;5055207;28;20259;-37
2022/05/13 02:48:57;;;;;;;6.65;2.00;;;14.90;82.50;;;;;;5059793;28;20231;-33
2022/05/13 02:51:26;;;;;;;4.25;1.25;;;14.90;82.50;;;;;;5051651;28;20240;-33
2022/05/13 02:53:54;;;;;;;5.35;1.40;;;14.90;82.70;;;;;;5048969;28;20244;-35
2022/05/13 02:56:25;;;;;;;3.55;1.50;;;14.80;82.60;;;;;;5050428;28;20682;-35
2022/05/13 02:58:52;;;;;;;4.75;1.10;;;14.80;82.40;;;;;;5045093;28;20228;-35
2022/05/13 03:01:25;;;;;;;7.37;1.20;;;14.80;82.60;;;;;;5055834;28;20270;-35
2022/05/13 03:03:54;;;;;;;7.77;1.30;;;14.80;82.90;;;;;;5049174;28;20281;-35
2022/05/13 03:06:22;;;;;;;5.87;1.60;;;14.80;82.90;;;;;;5058220;28;20219;-35
2022/05/13 03:08:49;;;;;;;5.70;1.60;;;14.70;82.90;;;;;;5066330;28;20241;-35
2022/05/13 03:11:17;;;;;;;2.80;1.17;;;14.70;82.90;;;;;;5059682;28;20345;-35
2022/05/13 03:13:47;;;;;;;3.50;1.10;;;14.70;83.10;;;;;;5057810;28;20204;-36
2022/05/13 03:16:21;;;;;;;3.27;1.17;;;14.60;82.90;;;;;;5056286;28;20215;-35
2022/05/13 03:18:54;;;;;;;4.95;1.20;;;14.60;83.20;;;;;;5054416;28;20207;-35
2022/05/13 03:21:23;;;;;;;5.10;1.40;;;14.60;83.20;;;;;;5058371;28;20330;-35
2022/05/13 03:23:54;;;;;;;6.23;1.60;;;14.60;83.80;;;;;;5050241;28;20315;-35
2022/05/13 03:26:22;;;;;;;4.47;1.17;;;14.60;83.40;;;;;;5051581;28;20215;-35
2022/05/13 03:28:49;;;;;;;4.67;1.30;;;14.50;83.10;;;;;;5052117;28;20296;-35
2022/05/13 03:31:16;;;;;;;6.00;1.60;;;14.50;83.20;;;;;;5062179;28;20738;-35
2022/05/13 03:33:44;;;;;;;6.90;1.70;;;14.50;83.40;;;;;;5051113;28;20218;-35
2022/05/13 03:36:12;;;;;;;6.67;1.40;;;14.50;83.40;;;;;;5044582;28;20586;-35
2022/05/13 03:38:40;;;;;;;6.63;1.90;;;14.50;83.60;;;;;;5063780;28;20214;-35
2022/05/13 03:41:10;;;;;;;8.45;1.85;;;14.50;83.70;;;;;;5060702;28;20290;-36
2022/05/13 03:43:37;;;;;;;7.25;2.03;;;14.40;83.70;;;;;;5055640;28;20698;-35
2022/05/13 03:46:07;;;;;;;5.17;1.77;;;14.40;83.80;;;;;;5048289;28;20291;-36
2022/05/13 03:48:34;;;;;;;9.00;1.80;;;14.40;83.70;;;;;;5046899;28;20556;-35
2022/05/13 03:51:04;;;;;;;4.63;1.77;;;14.40;83.90;;;;;;5052358;28;20219;-35
2022/05/13 03:53:31;;;;;;;7.03;1.43;;;14.40;83.90;;;;;;5055675;28;20204;-35
2022/05/13 03:56:00;;;;;;;5.23;1.57;;;14.40;84.00;;;;;;5048610;28;20207;-35
2022/05/13 03:58:28;;;;;;;4.60;1.83;;;14.40;84.00;;;;;;5065758;28;20578;-36
2022/05/13 04:00:58;;;;;;;4.67;1.60;;;14.40;84.30;;;;;;5063226;28;20211;-35
2022/05/13 04:03:25;;;;;;;5.93;1.70;;;14.40;84.20;;;;;;5057404;28;20594;-37
2022/05/13 04:08:59;;;;;;;6.40;1.63;;;14.40;84.30;;;;;;5063775;28;20322;-35
2022/05/13 04:11:29;;;;;;;5.67;1.50;;;14.40;84.40;;;;;;5058448;28;20250;-35
2022/05/13 04:16:48;;;;;;;4.70;1.83;;;14.40;85.00;;;;;;5055031;28;20211;-35
2022/05/13 04:19:19;;;;;;;7.57;1.80;;;14.30;84.80;;;;;;5046347;28;20216;-36
2022/05/13 04:21:48;;;;;;;6.33;1.77;;;14.40;85.10;;;;;;5056946;28;20239;-33
2022/05/13 04:24:18;;;;;;;5.10;1.60;;;14.40;85.10;;;;;;5052554;28;20217;-34
2022/05/13 04:26:47;;;;;;;7.40;1.90;;;14.30;84.90;;;;;;5052133;28;20224;-33
2022/05/13 04:29:19;;;;;;;6.60;1.90;;;14.30;85.10;;;;;;5065085;28;20204;-33
2022/05/13 04:31:51;;;;;;;5.90;1.70;;;14.40;85.10;;;;;;5059890;28;21064;-33
2022/05/13 04:34:18;;;;;;;6.73;2.10;;;14.40;86.40;;;;;;5057615;28;20266;-33
2022/05/13 04:36:46;;;;;;;7.18;1.98;;;14.40;85.20;;;;;;5047383;28;20208;-33
2022/05/13 04:39:16;;;;;;;6.87;2.00;;;14.40;85.70;;;;;;5046170;28;20220;-34
2022/05/13 04:44:35;;;;;;;7.73;1.87;;;14.40;85.60;;;;;;5054277;28;20659;-35
2022/05/13 04:47:02;;;;;;;7.57;2.00;;;14.40;85.50;;;;;;5057234;28;20246;-35
2022/05/13 04:49:34;;;;;;;9.60;2.23;;;14.40;85.60;;;;;;5051915;28;20681;-35
2022/05/13 04:52:01;;;;;;;9.50;2.47;;;14.40;85.60;;;;;;5063018;28;20258;-35
2022/05/13 04:54:28;;;;;;;7.03;1.90;;;14.50;85.80;;;;;;5055298;28;20203;-35
2022/05/13 04:56:56;;;;;;;7.40;2.20;;;14.50;85.90;;;;;;5063309;28;20204;-35
2022/05/13 04:59:23;;;;;;;7.20;2.37;;;14.60;86.30;;;;;;5048865;28;20231;-35
2022/05/13 05:01:51;;;;;;;7.73;2.27;;;14.60;86.10;;;;;;5053557;28;20220;-35
2022/05/13 05:04:23;;;;;;;9.07;2.40;;;14.60;86.50;;;;;;5054860;28;20223;-35
2022/05/13 05:06:50;;;;;;;8.83;2.33;;;14.60;86.60;;;;;;5059386;28;20261;-35
2022/05/13 05:09:17;;;;;;;10.80;2.23;;;14.60;86.70;;;;;;5054201;28;20414;-35
2022/05/13 05:11:47;;;;;;;5.53;2.00;;;14.60;86.60;;;;;;5053215;28;20254;-35
2022/05/13 05:14:14;;;;;;;6.27;2.07;;;14.60;86.60;;;;;;5054531;28;20236;-35
2022/05/13 05:16:41;;;;;;;6.50;2.33;;;14.60;86.60;;;;;;5050419;28;20824;-36
2022/05/13 05:19:09;;;;;;;6.93;2.30;;;14.70;86.90;;;;;;5050401;28;20196;-35
2022/05/13 05:21:36;;;;;;;9.80;2.60;;;14.70;88.00;;;;;;5058109;28;20299;-35
2022/05/13 05:24:06;;;;;;;5.87;1.90;;;14.70;86.80;;;;;;5052848;28;20591;-36
2022/05/13 05:26:33;;;;;;;8.27;2.50;;;14.80;87.00;;;;;;5074577;28;20599;-35
2022/05/13 05:29:00;;;;;;;9.50;2.07;;;14.80;88.30;;;;;;5061896;28;20214;-35
2022/05/13 05:31:30;;;;;;;8.33;2.57;;;14.80;87.80;;;;;;5065151;28;20207;-35
2022/05/13 05:34:00;;;;;;;10.00;2.60;;;14.80;87.90;;;;;;5057786;28;20200;-35
2022/05/13 05:36:29;;;;;;;13.53;3.23;;;14.80;87.60;;;;;;5060591;28;20227;-35
2022/05/13 05:38:57;;;;;;;10.80;2.63;;;14.90;87.70;;;;;;5052951;28;20212;-35
2022/05/13 05:41:24;;;;;;;12.38;2.50;;;14.90;87.40;;;;;;5063972;28;20215;-35
2022/05/13 05:43:53;;;;;;;14.30;3.00;;;14.90;87.60;;;;;;5067305;28;20229;-35
2022/05/13 05:46:23;;;;;;;9.88;3.08;;;15.00;87.90;;;;;;5065980;28;20234;-35
2022/05/13 05:48:51;;;;;;;13.67;3.37;;;15.00;88.20;;;;;;5053257;28;20208;-35
2022/05/13 05:51:18;;;;;;;12.13;2.80;;;15.10;88.10;;;;;;5054097;28;20200;-35
2022/05/13 05:59:19;;;;;;;11.90;3.57;;;15.20;88.50;;;;;;5049682;28;20202;-35
2022/05/13 06:01:47;;;;;;;9.77;2.17;;;15.20;88.30;;;;;;5047903;28;20437;-35
2022/05/13 06:04:25;;;;;;;12.48;3.13;;;15.30;88.90;;;;;;5062159;28;20246;-33
2022/05/13 06:06:52;;;;;;;12.93;3.03;;;15.40;88.90;;;;;;5059692;28;20765;-33
2022/05/13 06:09:19;;;;;;;10.00;2.25;;;15.40;88.90;;;;;;5053035;28;20200;-34
2022/05/13 06:11:46;;;;;;;12.37;3.10;;;15.50;89.20;;;;;;5067180;28;20755;-34
2022/05/13 06:14:15;;;;;;;12.27;3.03;;;15.50;89.40;;;;;;5055530;28;20207;-33
2022/05/13 06:16:46;;;;;;;11.87;2.97;;;15.60;89.80;;;;;;5057471;28;20204;-33
2022/05/13 06:19:16;;;;;;;15.52;3.10;;;15.60;89.70;;;;;;5054919;28;20681;-33
2022/05/13 06:21:46;;;;;;;15.88;2.95;;;15.70;89.90;;;;;;5057490;28;20203;-33
2022/05/13 06:24:18;;;;;;;15.40;4.68;;;15.70;89.70;;;;;;5059609;28;20254;-34
2022/05/13 06:26:49;;;;;;;11.25;3.70;;;15.80;90.00;;;;;;5049588;28;20232;-33
2022/05/13 06:29:21;;;;;;;13.73;3.20;;;15.90;90.00;;;;;;5057347;28;20662;-33
2022/05/13 06:31:49;;;;;;;14.27;2.80;;;15.90;90.40;;;;;;5053102;28;20298;-35
2022/05/13 06:34:17;;;;;;;11.23;2.80;;;15.90;90.80;;;;;;5051938;28;20655;-35
2022/05/13 06:36:47;;;;;;;10.13;3.63;;;16.00;90.20;;;;;;5047265;28;20204;-35
2022/05/13 06:39:16;;;;;;;9.33;2.97;;;16.10;90.30;;;;;;5060599;28;20664;-35
2022/05/13 06:41:44;;;;;;;13.15;3.22;;;16.10;90.50;;;;;;5048920;28;20767;-35
2022/05/13 06:44:12;;;;;;;8.25;2.33;;;16.20;90.30;;;;;;5061646;28;20650;-35
2022/05/13 06:46:39;;;;;;;10.10;2.35;;;16.20;90.50;;;;;;5065834;28;20228;-35
2022/05/13 06:49:08;;;;;;;10.35;2.65;;;16.30;90.50;;;;;;5061829;28;20191;-35
2022/05/13 06:51:40;;;;;;;12.73;3.45;;;16.40;90.50;;;;;;5059679;28;20199;-35
2022/05/13 06:54:12;;;;;;;12.80;3.20;;;16.50;90.70;;;;;;5067517;28;20208;-35
2022/05/13 06:56:41;;;;;;;12.77;3.00;;;16.50;90.80;;;;;;5065329;28;20222;-36
2022/05/13 06:59:12;;;;;;;19.75;3.65;;;16.60;90.70;;;;;;5064788;28;20283;-33
2022/05/13 07:01:40;;;;;;;19.83;3.25;;;16.60;90.70;;;;;;5049653;28;20208;-33
2022/05/13 07:04:07;;;;;;;9.52;2.75;;;16.60;91.10;;;;;;5051532;28;20203;-34
2022/05/13 07:06:37;;;;;;;10.90;2.90;;;16.60;90.90;;;;;;5066809;28;20216;-33
2022/05/13 07:09:05;;;;;;;12.73;3.63;;;16.60;91.30;;;;;;5062800;28;20737;-33
2022/05/13 07:11:32;;;;;;;14.82;3.30;;;16.70;91.00;;;;;;5047706;28;20236;-33
2022/05/13 07:14:00;;;;;;;12.85;2.70;;;16.70;91.20;;;;;;5051789;28;20298;-33
2022/05/13 07:16:31;;;;;;;10.85;2.92;;;16.80;90.90;;;;;;5049560;28;20667;-35
2022/05/13 07:19:04;;;;;;;17.23;3.33;;;16.80;90.80;;;;;;5048021;28;20210;-35
2022/05/13 07:21:32;;;;;;;8.18;3.33;;;16.80;90.90;;;;;;5057324;28;20215;-35
2022/05/13 07:24:02;;;;;;;11.90;3.17;;;16.90;90.90;;;;;;5067839;28;20668;-35
2022/05/13 07:26:34;;;;;;;14.88;2.95;;;16.90;91.10;;;;;;5063713;28;20216;-35
2022/05/13 07:29:05;;;;;;;12.32;2.60;;;17.00;91.00;;;;;;5053222;28;20481;-35
2022/05/13 07:31:35;;;;;;;14.88;2.90;;;17.00;90.90;;;;;;5063951;28;20283;-35
2022/05/13 07:34:05;;;;;;;14.23;3.03;;;17.00;90.90;;;;;;5060823;28;20299;-36
2022/05/13 07:36:33;;;;;;;13.52;3.10;;;17.00;91.00;;;;;;5063251;28;20276;-35
2022/05/13 07:41:50;;;;;;;12.02;2.88;;;17.10;91.00;;;;;;5067607;28;20199;-33
2022/05/13 07:44:21;;;;;;;10.05;2.33;;;17.10;91.00;;;;;;5051092;28;20212;-33
2022/05/13 07:46:48;;;;;;;10.27;2.13;;;17.20;91.10;;;;;;5047167;28;20228;-34
2022/05/13 07:49:18;;;;;;;13.07;2.67;;;17.10;91.20;;;;;;5051307;28;20266;-35
2022/05/13 07:51:47;;;;;;;12.90;2.75;;;17.20;90.90;;;;;;5057295;28;20593;-35
2022/05/13 07:54:14;;;;;;;12.70;2.58;;;17.20;90.80;;;;;;5066673;28;20215;-36
2022/05/13 07:56:42;;;;;;;18.67;2.88;;;17.20;90.90;;;;;;5049594;28;20210;-36
2022/05/13 07:59:09;;;;;;;6.35;2.03;;;17.20;90.90;;;;;;5060868;28;20207;-35
2022/05/13 08:01:36;;;;;;;10.75;2.25;;;17.20;90.80;;;;;;5047761;28;20285;-35
2022/05/13 08:04:04;;;;;;;7.93;1.85;;;17.20;90.80;;;;;;5051812;28;20227;-36
2022/05/13 08:06:33;;;;;;;9.55;1.85;;;17.20;91.00;;;;;;5048136;28;20214;-36
2022/05/13 08:09:04;;;;;;;9.60;2.55;;;17.20;90.80;;;;;;5052225;28;20212;-35
2022/05/13 08:11:31;;;;;;;4.47;2.28;;;17.20;90.90;;;;;;5046023;28;20748;-35
2022/05/13 08:14:06;;;;;;;6.75;1.70;;;17.30;90.90;;;;;;5046581;28;20845;-35
2022/05/13 08:16:36;;;;;;;6.15;1.80;;;17.30;90.70;;;;;;5065067;28;20708;-35
2022/05/13 08:19:05;;;;;;;11.45;3.22;;;17.20;90.70;;;;;;5068628;28;20690;-34
2022/05/13 08:21:33;;;;;;;9.82;2.22;;;17.30;91.50;;;;;;5069229;28;20559;-33
2022/05/13 08:24:01;;;;;;;16.05;2.67;;;17.30;90.90;;;;;;5066975;28;20562;-33
2022/05/13 08:26:30;;;;;;;5.85;2.13;;;17.40;91.30;;;;;;5067909;28;20239;-33
2022/05/13 08:28:58;;;;;;;10.35;1.90;;;17.40;91.10;;;;;;5062133;28;20227;-33
2022/05/13 08:31:25;;;;;;;7.47;1.83;;;17.40;90.90;;;;;;5062209;28;20243;-33
2022/05/13 08:33:52;;;;;;;8.90;2.63;;;17.50;90.90;;;;;;5050309;28;20311;-34
2022/05/13 08:36:19;;;;;;;7.75;2.13;;;17.50;90.90;;;;;;5052246;28;20648;-34
2022/05/13 08:38:50;;;;;;;3.75;1.70;;;17.50;91.00;;;;;;5051207;28;20793;-34
2022/05/13 08:41:46;;;;;;;21.23;3.10;;;17.50;90.80;;;;;;5051011;28;20208;-34
2022/05/13 08:44:15;;;;;;;8.35;1.77;;;17.60;91.10;;;;;;5050221;28;20208;-34
2022/05/13 08:46:56;;;;;;;5.03;1.70;;;17.60;90.90;;;;;;5058532;28;20224;-34
2022/05/13 08:50:07;;;;;;;10.82;1.98;;;17.60;91.00;;;;;;5051403;28;20261;-34
2022/05/13 08:55:32;;;;;;;5.07;1.40;;;17.70;91.10;;;;;;5061329;28;20205;-34
2022/05/13 08:58:03;;;;;;;8.60;2.10;;;17.70;90.90;;;;;;5058448;28;20235;-34
2022/05/13 09:00:35;;;;;;;4.35;1.30;;;17.70;91.00;;;;;;5062307;28;20694;-33
2022/05/13 09:03:23;;;;;;;5.72;1.55;;;17.80;91.10;;;;;;5062063;28;20591;-33
2022/05/13 09:06:00;;;;;;;9.32;1.52;;;17.90;91.00;;;;;;5042656;28;20243;-36
2022/05/13 09:08:35;;;;;;;5.45;1.55;;;18.00;90.90;;;;;;5061433;28;20214;-36
2022/05/13 09:11:30;;;;;;;5.88;1.42;;;18.00;90.70;;;;;;5066677;28;20651;-36
2022/05/13 09:14:21;;;;;;;4.72;1.60;;;18.10;90.50;;;;;;5049090;28;20232;-36
2022/05/13 09:17:19;;;;;;;4.50;1.55;;;18.10;90.40;;;;;;5056727;28;20250;-36
2022/05/13 09:20:08;;;;;;;4.30;1.20;;;18.20;90.50;;;;;;5054387;28;20384;-34
2022/05/13 09:22:38;;;;;;;7.07;1.30;;;18.20;90.50;;;;;;5062689;28;20222;-34
2022/05/13 09:25:07;;;;;;;4.03;1.23;;;18.30;90.60;;;;;;5050549;28;20212;-34
2022/05/13 09:27:50;;;;;;;6.50;1.20;;;18.30;90.70;;;;;;5052934;28;20634;-34
2022/05/13 09:30:28;;;;;;;2.78;1.20;;;18.30;90.90;;;;;;5048327;28;20216;-34
2022/05/13 09:32:55;;;;;;;8.32;2.08;;;18.40;90.80;;;;;;5061286;28;20243;-34
2022/05/13 09:35:37;;;;;;;3.65;1.30;;;18.50;90.90;;;;;;5047451;28;20204;-34
2022/05/13 09:38:17;;;;;;;4.03;1.33;;;18.60;91.00;;;;;;5056499;28;20682;-34
2022/05/13 09:40:55;;;;;;;4.90;1.23;;;18.70;91.10;;;;;;5059894;28;20648;-34
2022/05/13 09:43:36;;;;;;;3.60;1.30;;;18.80;91.00;;;;;;5059762;28;20687;-35
2022/05/13 09:46:30;;;;;;;6.88;1.40;;;18.90;90.90;;;;;;5049136;28;20299;-36
2022/05/13 09:49:04;;;;;;;8.93;1.60;;;19.00;90.90;;;;;;5040787;28;20199;-36
2022/05/13 09:51:36;;;;;;;7.30;1.77;;;19.10;91.00;;;;;;5045648;28;20603;-36
2022/05/13 09:54:33;;;;;;;5.32;1.30;;;19.10;91.00;;;;;;5045717;28;20589;-36
2022/05/13 09:57:29;;;;;;;6.35;1.50;;;19.20;91.00;;;;;;5047441;28;20962;-34
2022/05/13 10:00:06;;;;;;;3.80;1.33;;;19.30;90.70;;;;;;5050405;28;20196;-34
2022/05/13 10:02:42;;;;;;;6.32;1.63;;;19.40;90.60;;;;;;5057667;28;20207;-34
2022/05/13 10:05:14;;;;;;;4.78;1.25;;;19.40;90.60;;;;;;5045307;28;20514;-35
2022/05/13 10:07:55;;;;;;;3.75;1.13;;;19.50;90.70;;;;;;5047283;28;20717;-34
2022/05/13 10:16:10;;;;;;;4.20;1.30;;;19.60;90.90;;;;;;5045304;28;21414;-34
2022/05/13 10:19:05;;;;;;;8.40;1.73;;;19.70;90.90;;;;;;5035455;28;20208;-34
2022/05/13 10:22:15;;;;;;;6.78;1.70;;;19.70;90.80;;;;;;5043121;28;20928;-34
2022/05/13 10:25:27;;;;;;;4.63;1.55;;;19.80;90.80;;;;;;5050133;28;20226;-34
2022/05/13 10:28:02;;;;;;;4.57;1.50;;;19.80;90.90;;;;;;5038230;28;20619;-34
2022/05/13 10:30:39;;;;;;;4.50;1.33;;;19.90;90.90;;;;;;5057227;28;20588;-35
2022/05/13 10:33:27;;;;;;;7.70;1.80;;;20.00;90.70;;;;;;5067490;28;20272;-34
2022/05/13 10:36:14;;;;;;;8.70;1.38;;;20.10;90.70;;;;;;5057508;28;20243;-34
2022/05/13 10:38:53;;;;;;;4.65;1.60;;;20.10;90.50;;;;;;5064423;28;21056;-34
2022/05/13 10:41:42;;;;;;;2.88;1.08;;;20.20;90.50;;;;;;5051136;28;20211;-34
2022/05/13 10:44:26;;;;;;;7.95;1.75;;;20.30;90.80;;;;;;5054110;28;20200;-34
2022/05/13 10:47:05;;;;;;;4.65;1.40;;;20.30;90.90;;;;;;5062864;28;20255;-34
2022/05/13 10:49:42;;;;;;;4.57;1.75;;;20.40;90.70;;;;;;5047911;28;20211;-34
2022/05/13 10:52:23;;;;;;;3.85;1.50;;;20.40;91.00;;;;;;5054828;28;20195;-34
2022/05/13 10:54:56;;;;;;;5.03;1.20;;;20.50;90.90;;;;;;5048327;28;20211;-34
2022/05/13 10:57:38;;;;;;;7.15;1.33;;;20.50;91.00;;;;;;5047235;28;20208;-34
2022/05/13 11:00:30;;;;;;;3.40;1.17;;;20.60;90.60;;;;;;5046558;28;20311;-34
2022/05/13 11:03:40;;;;;;;8.07;1.90;;;20.60;90.60;;;;;;5046687;28;20204;-34
2022/05/13 11:06:14;;;;;;;7.40;1.20;;;20.60;90.30;;;;;;5046451;28;20219;-34
2022/05/13 11:08:54;;;;;;;3.08;1.10;;;20.60;90.60;;;;;;5047043;28;20323;-34
2022/05/13 11:11:45;;;;;;;3.97;1.38;;;20.60;90.60;;;;;;5054905;28;20231;-34
2022/05/13 11:14:12;;;;;;;4.97;1.30;;;20.60;90.00;;;;;;5046101;28;20635;-34
2022/05/13 11:17:07;;;;;;;5.50;1.35;;;20.60;90.40;;;;;;5046343;28;20208;-34
2022/05/13 11:19:46;;;;;;;4.35;1.30;;;20.60;90.50;;;;;;5046851;28;20692;-35
2022/05/13 11:22:38;;;;;;;4.22;1.40;;;20.70;90.60;;;;;;5058138;28;20199;-34
2022/05/13 11:25:54;;;;;;;7.22;1.42;;;20.70;90.60;;;;;;5034249;28;20214;-34
2022/05/13 11:28:35;;;;;;;5.50;1.50;;;20.80;90.40;;;;;;5052441;28;20224;-36
2022/05/13 11:31:14;;;;;;;6.50;1.70;;;20.90;90.70;;;;;;5063683;28;20208;-36
2022/05/13 11:34:15;;;;;;;5.30;1.67;;;20.90;90.50;;;;;;5059932;28;20199;-36
2022/05/13 11:37:09;;;;;;;7.60;1.75;;;21.00;90.60;;;;;;5049042;28;20203;-36
2022/05/13 11:39:57;;;;;;;5.65;1.60;;;21.10;90.50;;;;;;5065681;28;20294;-36
2022/05/13 11:43:18;;;;;;;5.05;1.80;;;21.10;90.40;;;;;;5048310;28;20481;-36
2022/05/13 11:45:41;;;;;;;4.32;1.15;;;21.20;90.00;;;;;;5065531;28;20210;-36
2022/05/13 11:48:26;;;;;;;4.28;1.25;;;21.20;90.70;;;;;;5057976;28;20212;-36
2022/05/13 11:51:04;;;;;;;4.78;1.52;;;21.30;90.50;;;;;;5055690;28;20491;-36
2022/05/13 11:53:46;;;;;;;6.07;1.77;;;21.60;90.50;;;;;;5044844;28;20215;-35
2022/05/13 11:56:26;;;;;;;8.05;1.88;;;21.60;90.60;;;;;;5045664;28;20624;-36
2022/05/13 11:59:03;;;;;;;7.70;1.50;;;21.70;90.40;;;;;;5063810;28;20703;-36
2022/05/13 12:01:36;;;;;;;10.63;2.55;;;21.70;90.50;;;;;;5062222;28;20601;-36
2022/05/13 12:04:16;;;;;;;4.50;1.50;;;21.70;89.90;;;;;;5054472;28;20203;-36
2022/05/13 12:06:49;;;;;;;3.80;1.20;;;21.70;90.50;;;;;;5045080;28;20199;-36
2022/05/13 12:09:36;;;;;;;4.47;1.65;;;21.70;90.60;;;;;;5057804;28;20566;-36
2022/05/13 12:12:34;;;;;;;3.70;1.30;;;21.70;90.70;;;;;;5061789;28;20304;-35
2022/05/13 12:15:13;;;;;;;9.38;1.83;;;21.70;90.60;;;;;;5054953;28;20203;-35
2022/05/13 12:18:02;;;;;;;11.60;2.15;;;21.80;90.20;;;;;;5059336;28;20419;-35
2022/05/13 12:20:51;;;;;;;5.68;1.52;;;21.80;90.10;;;;;;5048007;28;20210;-35
2022/05/13 12:23:33;;;;;;;5.60;1.92;;;21.80;90.20;;;;;;5049545;28;20299;-35
2022/05/13 12:26:09;;;;;;;5.22;1.63;;;21.90;90.60;;;;;;5045900;28;20259;-35
2022/05/13 12:28:56;;;;;;;5.38;1.60;;;21.90;90.60;;;;;;5049145;28;20231;-35
2022/05/13 12:31:29;;;;;;;10.55;2.00;;;21.90;90.50;;;;;;5053164;28;20196;-35
2022/05/13 12:40:06;;;;;;;7.28;1.50;;;22.00;90.70;;;;;;5043035;28;20204;-35
2022/05/13 12:42:51;;;;;;;4.43;1.17;;;22.00;90.30;;;;;;5044268;28;20306;-35
2022/05/13 12:45:22;;;;;;;7.25;1.70;;;22.10;90.70;;;;;;5042095;28;20204;-35
2022/05/13 12:48:06;;;;;;;10.07;2.65;;;22.20;90.70;;;;;;5044335;28;20733;-35
2022/05/13 12:50:45;;;;;;;7.85;1.80;;;22.20;90.40;;;;;;5044964;28;20196;-36
2022/05/13 12:53:28;;;;;;;12.75;2.10;;;22.30;90.80;;;;;;5042561;28;20537;-35
2022/05/13 12:56:11;;;;;;;15.20;2.40;;;22.40;91.00;;;;;;5046912;28;20212;-35
2022/05/13 12:58:52;;;;;;;7.88;2.15;;;22.40;90.90;;;;;;5043292;28;20696;-35
2022/05/13 13:01:19;;;;;;;6.95;1.85;;;22.50;90.90;;;;;;5042121;28;20899;-35
2022/05/13 13:03:48;;;;;;;8.15;2.45;;;22.60;90.40;;;;;;5043766;28;20216;-35
2022/05/13 13:06:21;;;;;;;9.43;1.80;;;22.50;90.50;;;;;;5046202;28;20236;-35
2022/05/13 13:08:53;;;;;;;7.80;1.85;;;22.60;91.00;;;;;;5049650;28;20223;-35
2022/05/13 13:11:43;;;;;;;8.10;1.60;;;22.60;90.80;;;;;;5044555;28;20642;-35
2022/05/13 13:14:47;;;;;;;6.55;1.98;;;22.60;90.50;;;;;;5046501;28;20204;-35
2022/05/13 13:17:41;;;;;;;8.35;1.88;;;22.60;90.40;;;;;;5044231;28;20199;-35
2022/05/13 13:20:11;;;;;;;6.93;1.70;;;22.70;90.80;;;;;;5044287;28;20212;-35
2022/05/13 13:22:52;;;;;;;7.82;1.85;;;22.70;90.80;;;;;;5045826;28;20208;-35
2022/05/13 13:25:30;;;;;;;10.90;1.80;;;22.70;90.70;;;;;;5050478;28;20200;-35
2022/05/13 13:28:03;;;;;;;3.72;1.20;;;22.70;90.60;;;;;;5062209;28;20224;-35
2022/05/13 13:30:36;;;;;;;5.82;1.38;;;22.70;90.70;;;;;;5058166;28;20188;-35
2022/05/13 13:33:10;;;;;;;8.30;1.17;;;22.70;90.70;;;;;;5049269;28;20326;-35
2022/05/13 13:35:41;;;;;;;8.32;1.52;;;22.70;90.10;;;;;;5053306;28;20729;-35
2022/05/13 13:38:11;;;;;;;3.97;1.08;;;22.80;90.60;;;;;;5055138;28;20302;-35
2022/05/13 13:40:43;;;;;;;9.18;1.50;;;22.80;90.70;;;;;;5057961;28;20195;-35
2022/05/13 13:43:17;;;;;;;9.02;2.00;;;22.80;90.90;;;;;;5056516;28;20763;-35
2022/05/13 13:45:51;;;;;;;5.43;1.83;;;22.80;90.50;;;;;;5049205;28;20220;-35
2022/05/13 13:48:30;;;;;;;10.77;2.35;;;22.80;90.60;;;;;;5051034;28;20228;-36
2022/05/13 13:50:59;;;;;;;6.70;1.65;;;22.80;90.70;;;;;;5046338;28;20662;-35